Time;durP1;ratioP1;P1;durP2;ratioP2;P2;SDS_P1;SDS_P2;PMS_P1;PMS_P2;Temp;Humidity;BMP_temperature;BMP_pressure;BME280_temperature;BME280_humidity;BME280_pressure;Samples;Min_cycle;Max_cycle;Signal;HPM_P1;HPM_P2
2022/06/09 00:01:33;;;;;;;7.70;3.15;;;14.50;99.90;;;;;;5055451;28;20492;-74
2022/06/09 00:04:21;;;;;;;7.07;2.58;;;14.50;99.90;;;;;;5071964;28;20040;-74
2022/06/09 00:06:54;;;;;;;5.45;2.10;;;14.50;99.90;;;;;;5072009;28;20131;-75
2022/06/09 00:09:22;;;;;;;10.25;2.67;;;14.50;99.90;;;;;;5072183;28;20036;-75
2022/06/09 00:11:50;;;;;;;11.88;2.40;;;14.50;99.90;;;;;;5071958;28;20033;-75
2022/06/09 00:14:17;;;;;;;8.85;2.85;;;14.50;99.90;;;;;;5071909;28;20048;-76
2022/06/09 00:16:43;;;;;;;5.18;2.15;;;14.70;99.90;;;;;;5071950;28;20127;-75
2022/06/09 00:19:11;;;;;;;2.65;1.85;;;14.50;99.90;;;;;;5055278;28;20455;-75
2022/06/09 00:21:37;;;;;;;5.47;2.10;;;14.50;99.90;;;;;;5072033;28;20049;-75
2022/06/09 00:24:04;;;;;;;5.47;2.75;;;14.50;99.90;;;;;;5055746;28;20066;-74
2022/06/09 00:26:30;;;;;;;9.02;2.58;;;14.50;99.90;;;;;;5071865;28;20087;-75
2022/06/09 00:28:56;;;;;;;4.13;2.08;;;14.40;99.90;;;;;;5072072;28;20200;-75
2022/06/09 00:31:22;;;;;;;5.50;2.78;;;14.40;99.90;;;;;;5055104;28;20407;-75
2022/06/09 00:33:48;;;;;;;6.20;2.45;;;14.50;99.90;;;;;;5071706;28;20102;-75
2022/06/09 00:36:14;;;;;;;7.63;2.88;;;14.40;99.90;;;;;;5071761;28;20044;-75
2022/06/09 00:38:39;;;;;;;8.32;2.60;;;14.50;99.90;;;;;;5071890;28;20037;-75
2022/06/09 00:41:06;;;;;;;8.98;2.10;;;14.40;99.90;;;;;;5055293;28;20048;-74
2022/06/09 00:43:32;;;;;;;5.53;2.30;;;14.50;99.90;;;;;;5071582;28;20047;-74
2022/06/09 00:46:13;;;;;;;6.63;1.92;;;14.40;99.90;;;;;;5071192;28;20060;-74
2022/06/09 00:48:49;;;;;;;4.80;2.35;;;14.40;99.90;;;;;;5071396;28;20450;-75
2022/06/09 00:51:36;;;;;;;6.78;2.35;;;14.40;99.90;;;;;;5071444;28;20041;-74
2022/06/09 00:54:21;;;;;;;5.18;2.05;;;14.40;99.90;;;;;;5071843;28;20117;-74
2022/06/09 00:57:17;;;;;;;4.07;2.17;;;14.40;99.90;;;;;;5071747;28;20075;-74
2022/06/09 00:59:46;;;;;;;6.15;2.28;;;14.30;99.90;;;;;;5061379;28;20048;-74
2022/06/09 01:02:15;;;;;;;8.00;2.50;;;14.30;99.90;;;;;;5071651;28;20051;-74
2022/06/09 01:04:41;;;;;;;11.32;2.67;;;14.30;99.90;;;;;;5071551;28;20124;-74
2022/06/09 01:07:11;;;;;;;6.47;2.40;;;14.30;99.90;;;;;;5071360;28;20513;-75
2022/06/09 01:09:37;;;;;;;8.18;2.70;;;14.30;99.90;;;;;;5071301;28;20080;-74
2022/06/09 01:12:23;;;;;;;5.85;2.95;;;14.30;99.90;;;;;;5071281;28;20032;-74
2022/06/09 01:14:49;;;;;;;8.23;2.75;;;14.30;99.90;;;;;;5071370;28;20079;-74
2022/06/09 01:18:04;;;;;;;12.32;2.97;;;14.30;99.90;;;;;;5070989;28;20045;-74
2022/06/09 01:20:46;;;;;;;7.47;2.88;;;14.40;99.90;;;;;;5071067;28;20044;-74
2022/06/09 01:23:20;;;;;;;13.70;3.25;;;14.40;99.90;;;;;;5071048;28;20045;-74
2022/06/09 01:25:49;;;;;;;7.72;2.78;;;14.30;99.90;;;;;;5070948;28;20036;-74
2022/06/09 01:28:39;;;;;;;6.55;2.58;;;14.40;99.90;;;;;;5072119;28;20119;-74
2022/06/09 01:31:15;;;;;;;5.85;3.42;;;14.40;99.90;;;;;;5070729;28;20040;-74
2022/06/09 01:33:46;;;;;;;6.93;3.17;;;14.40;99.90;;;;;;5070768;28;20127;-74
2022/06/09 01:36:21;;;;;;;7.20;2.85;;;14.70;99.90;;;;;;5070978;28;20178;-74
2022/06/09 01:38:53;;;;;;;5.88;2.67;;;14.40;99.90;;;;;;5070770;28;20044;-74
2022/06/09 01:41:22;;;;;;;10.25;3.33;;;14.40;99.90;;;;;;5070927;28;20051;-75
2022/06/09 01:43:49;;;;;;;6.53;2.78;;;14.40;99.90;;;;;;5072203;28;20044;-75
2022/06/09 01:46:24;;;;;;;15.00;4.15;;;14.40;99.90;;;;;;5057876;28;20084;-75
2022/06/09 01:48:53;;;;;;;9.68;3.22;;;14.40;99.90;;;;;;5074482;28;20404;-74
2022/06/09 01:51:21;;;;;;;5.68;3.00;;;14.30;99.90;;;;;;5074720;28;20044;-74
2022/06/09 01:53:51;;;;;;;8.32;3.15;;;14.40;99.90;;;;;;5074743;28;20040;-75
2022/06/09 01:56:17;;;;;;;5.38;3.00;;;14.30;99.90;;;;;;5074588;28;20040;-74
2022/06/09 01:58:51;;;;;;;7.50;2.90;;;14.50;99.90;;;;;;5074402;28;20063;-75
2022/06/09 02:01:21;;;;;;;4.20;2.33;;;14.30;99.90;;;;;;5057599;28;20070;-75
2022/06/09 02:03:50;;;;;;;11.27;3.15;;;14.30;99.90;;;;;;5074433;28;20445;-75
2022/06/09 02:06:17;;;;;;;5.78;2.83;;;14.30;99.90;;;;;;5074370;28;20079;-75
2022/06/09 02:08:43;;;;;;;7.88;3.33;;;14.30;99.90;;;;;;5074281;28;20045;-75
2022/06/09 02:11:11;;;;;;;5.70;3.05;;;14.40;99.90;;;;;;5074394;28;20068;-75
2022/06/09 02:13:41;;;;;;;9.15;2.30;;;14.50;99.90;;;;;;5073897;28;20037;-75
2022/06/09 02:16:10;;;;;;;8.15;3.13;;;14.20;99.90;;;;;;5074132;28;20053;-75
2022/06/09 02:18:40;;;;;;;8.20;2.70;;;14.10;99.90;;;;;;5074599;28;20048;-75
2022/06/09 02:21:18;;;;;;;6.13;2.63;;;14.10;99.90;;;;;;5074281;28;20450;-74
2022/06/09 02:23:45;;;;;;;5.18;2.83;;;14.10;99.90;;;;;;5074301;28;20062;-75
2022/06/09 02:26:11;;;;;;;7.90;2.15;;;14.00;99.90;;;;;;5074303;28;20044;-74
2022/06/09 02:28:36;;;;;;;9.13;3.10;;;14.00;99.90;;;;;;5073994;28;20040;-75
2022/06/09 02:31:02;;;;;;;6.72;2.20;;;14.00;99.90;;;;;;5074107;28;20464;-74
2022/06/09 02:33:28;;;;;;;4.93;2.80;;;14.00;99.90;;;;;;5074061;28;20036;-74
2022/06/09 02:35:54;;;;;;;10.25;3.10;;;14.00;99.90;;;;;;5073992;28;20349;-74
2022/06/09 02:38:21;;;;;;;10.25;3.05;;;14.20;99.90;;;;;;5073939;28;20055;-74
2022/06/09 02:40:47;;;;;;;11.48;3.28;;;13.90;99.90;;;;;;5074008;28;20048;-74
2022/06/09 02:43:13;;;;;;;7.28;3.38;;;14.00;99.90;;;;;;5073948;28;20040;-74
2022/06/09 02:45:39;;;;;;;4.07;2.53;;;13.90;99.90;;;;;;5073371;28;20110;-75
2022/06/09 02:48:05;;;;;;;9.48;2.90;;;13.90;99.90;;;;;;5057060;28;20036;-74
2022/06/09 02:50:32;;;;;;;7.95;3.20;;;13.90;99.90;;;;;;5073593;28;20029;-74
2022/06/09 02:52:59;;;;;;;12.43;3.10;;;13.90;99.90;;;;;;5073601;28;20037;-75
2022/06/09 02:55:25;;;;;;;5.18;2.97;;;14.00;99.90;;;;;;5056392;28;20051;-75
2022/06/09 02:57:51;;;;;;;9.05;3.13;;;14.00;99.90;;;;;;5056564;28;20074;-74
2022/06/09 03:00:17;;;;;;;7.68;2.97;;;13.90;99.90;;;;;;5073728;28;20045;-75
2022/06/09 03:02:50;;;;;;;4.35;2.58;;;14.00;99.90;;;;;;5073329;28;20455;-74
2022/06/09 03:05:16;;;;;;;8.50;3.00;;;14.00;99.90;;;;;;5056723;28;20054;-75
2022/06/09 03:07:42;;;;;;;9.00;2.92;;;14.00;99.90;;;;;;5073804;28;20040;-75
2022/06/09 03:10:08;;;;;;;10.65;2.95;;;14.00;99.90;;;;;;5073448;28;20037;-74
2022/06/09 03:12:34;;;;;;;7.68;3.15;;;14.00;99.90;;;;;;5073393;28;20046;-74
2022/06/09 03:15:01;;;;;;;8.75;3.28;;;14.00;99.90;;;;;;5056848;28;20043;-74
2022/06/09 03:17:27;;;;;;;6.13;3.50;;;14.20;99.90;;;;;;5073485;28;20143;-74
2022/06/09 03:19:53;;;;;;;7.15;3.60;;;14.00;99.90;;;;;;5072810;28;20044;-75
2022/06/09 03:22:19;;;;;;;14.25;3.28;;;13.90;99.90;;;;;;5072662;28;20060;-74
2022/06/09 03:24:45;;;;;;;4.75;3.05;;;13.90;99.90;;;;;;5072977;28;20045;-74
2022/06/09 03:27:10;;;;;;;12.07;4.45;;;13.90;99.90;;;;;;5072589;28;20033;-74
2022/06/09 03:29:37;;;;;;;5.82;3.53;;;13.90;99.90;;;;;;5072409;28;20048;-74
2022/06/09 03:32:03;;;;;;;5.80;3.25;;;13.90;99.90;;;;;;5072486;28;20403;-75
2022/06/09 03:34:28;;;;;;;12.02;4.15;;;13.90;99.90;;;;;;5072497;28;20040;-75
2022/06/09 03:36:54;;;;;;;9.98;3.42;;;13.90;99.90;;;;;;5072570;28;20341;-74
2022/06/09 03:39:20;;;;;;;8.65;3.25;;;13.90;99.90;;;;;;5072286;28;20048;-74
2022/06/09 03:41:45;;;;;;;4.78;2.92;;;13.90;99.90;;;;;;5056059;28;20471;-74
2022/06/09 03:44:11;;;;;;;5.55;3.22;;;13.80;99.90;;;;;;5075095;28;20477;-74
2022/06/09 03:46:37;;;;;;;9.00;3.47;;;13.90;99.90;;;;;;5075742;28;20044;-74
2022/06/09 03:49:03;;;;;;;10.35;3.03;;;13.90;99.90;;;;;;5094005;28;20039;-74
2022/06/09 03:51:29;;;;;;;6.10;3.08;;;13.80;99.90;;;;;;5075887;28;20414;-74
2022/06/09 03:53:55;;;;;;;9.63;3.00;;;13.80;99.90;;;;;;5076389;28;20032;-74
2022/06/09 03:56:21;;;;;;;8.23;3.33;;;13.80;99.90;;;;;;5075591;28;20047;-74
2022/06/09 03:58:48;;;;;;;6.35;2.90;;;13.80;99.90;;;;;;5075485;28;20059;-75
2022/06/09 04:01:17;;;;;;;5.05;2.53;;;13.80;99.90;;;;;;5075755;28;20043;-74
2022/06/09 04:03:43;;;;;;;6.35;3.00;;;13.80;99.90;;;;;;5075405;28;20047;-74
2022/06/09 04:06:22;;;;;;;5.05;3.22;;;13.80;99.90;;;;;;5074622;28;20407;-74
2022/06/09 04:08:48;;;;;;;4.88;3.10;;;14.00;99.90;;;;;;5075364;28;20388;-74
2022/06/09 04:11:15;;;;;;;4.43;2.80;;;13.80;99.90;;;;;;5075452;28;20055;-74
2022/06/09 04:13:42;;;;;;;8.05;2.55;;;13.80;99.90;;;;;;5075252;28;20044;-75
2022/06/09 04:16:25;;;;;;;6.20;2.50;;;13.90;99.90;;;;;;5075331;28;20046;-75
2022/06/09 04:18:58;;;;;;;4.22;2.00;;;13.90;99.90;;;;;;5075312;28;20054;-74
2022/06/09 04:21:24;;;;;;;5.78;2.30;;;13.90;99.90;;;;;;5075038;28;20048;-74
2022/06/09 04:23:50;;;;;;;4.25;2.05;;;13.90;99.90;;;;;;5075002;28;20487;-74
2022/06/09 04:26:19;;;;;;;1.83;1.48;;;13.90;99.90;;;;;;5058683;28;20043;-74
2022/06/09 04:28:46;;;;;;;3.83;2.10;;;13.90;99.90;;;;;;5074975;28;20446;-74
2022/06/09 04:31:12;;;;;;;4.30;2.35;;;13.90;99.90;;;;;;5041778;28;20403;-74
2022/06/09 04:33:38;;;;;;;5.03;2.20;;;13.80;99.90;;;;;;5074870;28;20044;-74
2022/06/09 04:36:05;;;;;;;3.40;2.05;;;13.90;99.90;;;;;;5074756;28;20044;-74
2022/06/09 04:38:31;;;;;;;4.75;1.88;;;13.80;99.90;;;;;;5074515;28;20105;-74
2022/06/09 04:40:57;;;;;;;4.68;2.15;;;13.80;99.90;;;;;;5058598;28;20422;-74
2022/06/09 04:43:23;;;;;;;7.40;2.97;;;13.90;99.90;;;;;;5075181;28;20495;-74
2022/06/09 04:45:49;;;;;;;3.55;2.20;;;13.90;99.90;;;;;;5071565;28;20381;-74
2022/06/09 04:48:14;;;;;;;6.38;2.15;;;13.90;99.90;;;;;;5071839;28;20048;-74
2022/06/09 04:50:42;;;;;;;7.25;2.30;;;13.90;99.90;;;;;;5055013;28;20032;-74
2022/06/09 04:53:09;;;;;;;3.60;2.00;;;13.90;99.90;;;;;;5071477;28;20097;-74
2022/06/09 04:55:36;;;;;;;2.58;2.00;;;14.10;99.90;;;;;;5071519;28;20051;-75
2022/06/09 04:58:02;;;;;;;5.85;2.13;;;13.90;99.90;;;;;;5054876;28;20123;-74
2022/06/09 05:00:28;;;;;;;7.00;2.70;;;14.00;99.90;;;;;;5071308;28;20408;-74
2022/06/09 05:02:56;;;;;;;3.83;2.45;;;14.00;99.90;;;;;;5071322;28;20076;-75
2022/06/09 05:05:33;;;;;;;5.00;2.53;;;14.00;99.90;;;;;;5054813;28;20041;-74
2022/06/09 05:08:00;;;;;;;3.88;2.03;;;14.00;99.90;;;;;;5071376;28;20040;-74
2022/06/09 05:10:27;;;;;;;6.80;2.97;;;14.00;99.90;;;;;;5071517;28;20047;-74
2022/06/09 05:12:54;;;;;;;5.00;2.75;;;14.00;99.90;;;;;;5055278;28;20079;-73
2022/06/09 05:15:21;;;;;;;6.82;3.20;;;14.00;99.90;;;;;;5071994;28;20048;-73
2022/06/09 05:17:48;;;;;;;5.30;2.92;;;14.00;99.90;;;;;;5073074;28;20431;-73
2022/06/09 05:20:16;;;;;;;6.43;3.15;;;14.00;99.90;;;;;;5076323;28;20040;-74
2022/06/09 05:22:42;;;;;;;6.55;3.95;;;14.00;99.90;;;;;;5076084;28;20502;-74
2022/06/09 05:25:09;;;;;;;5.63;3.15;;;14.00;99.90;;;;;;5075799;28;20045;-74
2022/06/09 05:27:35;;;;;;;9.45;3.65;;;14.00;99.90;;;;;;5075714;28;20396;-72
2022/06/09 05:30:06;;;;;;;5.30;3.83;;;14.00;99.90;;;;;;5075703;28;20039;-73
2022/06/09 05:32:32;;;;;;;;;;;13.90;99.90;;;;;;5075928;28;20385;-73
2022/06/09 05:34:57;;;;;;;6.63;4.35;;;13.90;99.90;;;;;;5075383;28;19923;-73
2022/06/09 05:37:23;;;;;;;5.88;4.20;;;13.90;99.90;;;;;;5058447;28;20041;-73
2022/06/09 05:45:17;;;;;;;8.48;5.55;;;13.70;99.90;;;;;;5074651;28;20055;-73
2022/06/09 05:47:43;;;;;;;9.00;5.97;;;13.80;99.90;;;;;;5075689;28;20127;-72
2022/06/09 05:50:11;;;;;;;7.07;4.28;;;13.80;99.90;;;;;;5077149;28;20190;-73
2022/06/09 05:52:37;;;;;;;11.05;6.13;;;13.80;99.90;;;;;;5075280;28;20123;-73
2022/06/09 05:55:03;;;;;;;8.98;5.15;;;13.80;99.90;;;;;;5058214;28;20075;-73
2022/06/09 05:57:29;;;;;;;9.93;4.97;;;13.80;99.90;;;;;;5074695;28;20044;-73
2022/06/09 05:59:55;;;;;;;8.70;4.75;;;13.70;99.90;;;;;;5058446;28;20135;-73
2022/06/09 06:02:24;;;;;;;11.70;5.45;;;13.80;99.90;;;;;;5074888;28;20041;-73
2022/06/09 06:04:51;;;;;;;8.65;5.28;;;13.80;99.90;;;;;;5074579;28;20044;-74
2022/06/09 06:07:17;;;;;;;11.68;5.55;;;13.80;99.90;;;;;;5074808;28;20388;-74
2022/06/09 06:09:42;;;;;;;9.52;5.13;;;13.80;99.90;;;;;;5074881;28;20041;-73
2022/06/09 06:12:09;;;;;;;11.43;5.13;;;13.80;99.90;;;;;;5075183;28;20040;-72
2022/06/09 06:14:35;;;;;;;10.02;6.03;;;13.90;99.90;;;;;;5074744;28;20503;-74
2022/06/09 06:17:01;;;;;;;10.77;5.65;;;14.00;99.90;;;;;;5074676;28;20048;-74
2022/06/09 06:19:27;;;;;;;10.20;6.13;;;14.10;99.90;;;;;;5075665;28;20040;-74
2022/06/09 06:21:53;;;;;;;10.65;6.57;;;14.00;99.90;;;;;;5057704;28;20114;-74
2022/06/09 06:24:21;;;;;;;11.00;6.47;;;14.20;99.90;;;;;;5074459;28;20039;-73
2022/06/09 06:26:47;;;;;;;11.25;6.20;;;14.20;99.90;;;;;;5057528;28;20040;-74
2022/06/09 06:29:20;;;;;;;11.93;6.65;;;14.30;99.90;;;;;;5073103;28;20424;-74
2022/06/09 06:31:46;;;;;;;10.68;6.95;;;14.30;99.90;;;;;;5074247;28;20138;-74
2022/06/09 06:34:12;;;;;;;13.07;6.60;;;14.40;99.90;;;;;;5074083;28;20058;-73
2022/06/09 06:36:38;;;;;;;11.38;6.75;;;14.40;99.90;;;;;;5073882;28;20043;-74
2022/06/09 06:39:04;;;;;;;11.75;6.63;;;14.70;99.90;;;;;;5057355;28;20044;-74
2022/06/09 06:41:30;;;;;;;12.98;6.78;;;14.60;99.90;;;;;;5073867;28;20076;-74
2022/06/09 06:43:56;;;;;;;12.02;6.07;;;14.70;99.90;;;;;;5057704;28;20585;-73
2022/06/09 06:46:22;;;;;;;15.93;6.53;;;14.80;99.90;;;;;;5076889;28;20063;-74
2022/06/09 06:48:48;;;;;;;11.20;6.05;;;14.80;99.90;;;;;;5060185;28;20032;-73
2022/06/09 06:51:14;;;;;;;11.20;6.88;;;14.80;99.90;;;;;;5076988;28;20043;-73
2022/06/09 06:53:40;;;;;;;11.75;6.82;;;15.00;99.90;;;;;;5076763;28;20036;-74
2022/06/09 06:56:07;;;;;;;13.45;6.88;;;15.20;99.90;;;;;;5077073;28;20485;-74
2022/06/09 06:58:33;;;;;;;11.43;6.53;;;15.30;99.90;;;;;;5077303;28;20484;-73
2022/06/09 07:01:02;;;;;;;14.40;6.18;;;15.50;99.90;;;;;;5094765;28;20050;-74
2022/06/09 07:03:29;;;;;;;8.65;5.70;;;15.70;99.90;;;;;;5076596;28;20459;-73
2022/06/09 07:05:55;;;;;;;9.82;5.57;;;15.70;99.90;;;;;;5076421;28;20374;-73
2022/06/09 07:08:23;;;;;;;8.70;5.10;;;15.80;99.90;;;;;;5060211;28;20093;-74
2022/06/09 07:10:50;;;;;;;8.40;5.47;;;15.80;99.90;;;;;;5076779;28;20052;-74
2022/06/09 07:13:16;;;;;;;9.77;5.18;;;15.80;99.90;;;;;;5094501;28;20069;-74
2022/06/09 07:15:41;;;;;;;12.13;5.25;;;15.90;99.90;;;;;;5076581;28;20036;-73
2022/06/09 07:18:09;;;;;;;6.65;4.63;;;16.00;99.90;;;;;;5076710;28;20047;-73
2022/06/09 07:20:35;;;;;;;9.55;4.68;;;16.10;99.90;;;;;;5076514;28;20040;-74
2022/06/09 07:23:01;;;;;;;7.43;4.28;;;16.40;99.90;;;;;;5094336;28;20036;-74
2022/06/09 07:25:27;;;;;;;8.10;4.63;;;16.50;99.90;;;;;;5076180;28;20429;-73
2022/06/09 07:27:54;;;;;;;8.13;4.90;;;16.70;99.90;;;;;;5059398;28;20035;-74
2022/06/09 07:30:21;;;;;;;7.57;4.30;;;16.70;99.90;;;;;;5076135;28;20036;-73
2022/06/09 07:32:47;;;;;;;7.80;4.25;;;16.90;99.90;;;;;;5059665;28;20074;-74
2022/06/09 07:35:18;;;;;;;7.82;4.35;;;16.90;99.90;;;;;;5094369;28;20131;-74
2022/06/09 07:37:44;;;;;;;8.63;4.47;;;17.00;99.90;;;;;;5076125;28;20063;-74
2022/06/09 07:40:10;;;;;;;7.03;4.53;;;17.10;99.90;;;;;;5059523;28;20040;-74
2022/06/09 07:42:36;;;;;;;6.47;4.35;;;17.30;99.90;;;;;;5059444;28;20043;-73
2022/06/09 07:45:05;;;;;;;4.28;2.92;;;17.50;99.90;;;;;;5072531;28;20102;-74
2022/06/09 07:47:30;;;;;;;9.40;3.75;;;17.50;99.90;;;;;;5055683;28;20067;-73
2022/06/09 07:49:57;;;;;;;6.47;3.90;;;17.50;99.90;;;;;;5072218;28;20040;-74
2022/06/09 07:52:23;;;;;;;4.20;2.92;;;17.50;99.90;;;;;;5072612;28;20492;-73
2022/06/09 07:54:48;;;;;;;6.80;3.10;;;17.40;99.90;;;;;;5072210;28;20090;-74
2022/06/09 07:57:14;;;;;;;3.75;2.53;;;17.40;99.90;;;;;;5055740;28;20047;-74
2022/06/09 07:59:40;;;;;;;4.40;2.55;;;17.60;99.90;;;;;;5072521;28;20036;-74
2022/06/09 08:02:05;;;;;;;4.55;2.80;;;17.40;99.90;;;;;;5072430;28;20147;-74
2022/06/09 08:04:31;;;;;;;5.75;2.40;;;17.40;99.90;;;;;;5072356;28;20404;-74
2022/06/09 08:06:57;;;;;;;5.45;2.47;;;17.70;99.90;;;;;;5072119;28;20442;-75
2022/06/09 08:09:23;;;;;;;4.03;2.22;;;17.70;99.90;;;;;;5039128;28;20032;-74
2022/06/09 08:11:49;;;;;;;3.63;2.13;;;17.80;99.90;;;;;;5055584;28;20443;-74
2022/06/09 08:14:14;;;;;;;2.28;1.58;;;17.90;99.90;;;;;;5072261;28;20115;-74
2022/06/09 08:16:40;;;;;;;3.45;1.92;;;18.10;99.90;;;;;;5056009;28;20098;-74
2022/06/09 08:19:07;;;;;;;3.03;2.00;;;18.30;99.90;;;;;;5071954;28;20083;-74
2022/06/09 08:21:33;;;;;;;2.33;1.40;;;18.10;99.90;;;;;;5071876;28;20093;-74
2022/06/09 08:23:59;;;;;;;4.40;1.70;;;18.20;99.90;;;;;;5071760;28;20415;-74
2022/06/09 08:26:25;;;;;;;3.15;1.48;;;18.10;99.90;;;;;;5071967;28;20083;-74
2022/06/09 08:28:51;;;;;;;3.20;1.42;;;18.10;99.90;;;;;;5071673;28;20146;-73
2022/06/09 08:31:17;;;;;;;3.92;1.52;;;18.30;99.90;;;;;;5071586;28;20059;-74
2022/06/09 08:33:43;;;;;;;4.78;1.55;;;18.50;99.90;;;;;;5054887;28;20040;-74
2022/06/09 08:36:09;;;;;;;2.40;1.33;;;18.50;99.90;;;;;;5071725;28;20048;-74
2022/06/09 08:38:35;;;;;;;1.92;1.15;;;18.30;99.90;;;;;;5073063;28;20373;-74
2022/06/09 08:41:17;;;;;;;1.73;1.10;;;18.30;99.90;;;;;;5072903;28;20040;-74
2022/06/09 08:44:25;;;;;;;1.90;0.95;;;18.40;99.90;;;;;;5071362;28;20079;-74
2022/06/09 08:47:11;;;;;;;1.58;0.70;;;18.70;99.90;;;;;;4955429;28;20059;-73
2022/06/09 08:49:59;;;;;;;1.40;0.80;;;18.70;99.90;;;;;;5064342;28;20131;-74
2022/06/09 08:52:33;;;;;;;1.90;0.82;;;18.60;99.90;;;;;;5071579;28;20561;-74
2022/06/09 08:55:15;;;;;;;1.65;0.82;;;18.60;99.90;;;;;;5072632;28;20101;-73
2022/06/09 08:57:43;;;;;;;6.75;0.80;;;18.70;99.90;;;;;;5071409;28;20119;-73
2022/06/09 09:00:13;;;;;;;1.33;0.45;;;18.80;99.90;;;;;;5072503;28;20051;-73
2022/06/09 09:02:43;;;;;;;1.38;0.40;;;18.70;99.90;;;;;;5071339;28;20050;-74
2022/06/09 09:05:29;;;;;;;;;;;18.50;99.90;;;;;;5071454;28;20045;-74
2022/06/09 09:07:59;;;;;;;2.97;0.60;;;18.40;99.90;;;;;;5104972;28;19924;-75
2022/06/09 09:10:49;;;;;;;3.53;0.60;;;18.50;99.90;;;;;;5071337;28;20457;-74
2022/06/09 09:13:31;;;;;;;1.10;0.70;;;18.80;99.90;;;;;;5071173;28;20381;-75
2022/06/09 09:16:01;;;;;;;0.77;0.50;;;19.00;99.90;;;;;;5071299;28;20045;-75
2022/06/09 09:18:28;;;;;;;0.57;0.50;;;19.00;99.90;;;;;;5054414;28;20067;-74
2022/06/09 09:21:00;;;;;;;1.83;0.50;;;18.90;99.90;;;;;;5071217;28;20124;-74
2022/06/09 09:23:43;;;;;;;0.40;0.40;;;18.80;99.90;;;;;;5071214;28;20049;-74
2022/06/09 09:26:23;;;;;;;0.50;0.40;;;18.70;99.90;;;;;;5070932;28;20450;-74
2022/06/09 09:28:54;;;;;;;1.00;0.80;;;18.80;99.90;;;;;;5070838;28;20462;-73
2022/06/09 09:31:38;;;;;;;0.60;0.40;;;19.00;99.90;;;;;;5071065;28;20036;-75
2022/06/09 09:34:04;;;;;;;0.50;0.40;;;19.00;99.90;;;;;;5054431;28;20037;-74
2022/06/09 09:36:37;;;;;;;0.75;0.40;;;19.20;99.90;;;;;;5054499;28;20484;-72
2022/06/09 09:39:11;;;;;;;1.55;0.73;;;19.40;99.90;;;;;;5071152;28;20040;-72
2022/06/09 09:41:39;;;;;;;1.00;0.82;;;19.30;99.90;;;;;;5070652;28;20045;-72
2022/06/09 09:44:16;;;;;;;1.40;0.43;;;19.20;99.90;;;;;;5072636;28;20123;-72
2022/06/09 09:46:46;;;;;;;3.55;0.57;;;19.30;99.90;;;;;;5057042;28;20044;-72
2022/06/09 09:49:32;;;;;;;0.30;0.30;;;19.40;99.90;;;;;;5074015;28;20044;-72
2022/06/09 09:51:59;;;;;;;2.13;0.40;;;19.60;99.90;;;;;;5057225;28;20139;-73
2022/06/09 09:54:38;;;;;;;1.63;0.60;;;19.60;99.90;;;;;;5073983;28;20185;-73
2022/06/09 09:57:18;;;;;;;0.65;0.40;;;19.40;99.90;;;;;;5074024;28;20047;-74
2022/06/09 09:59:51;;;;;;;0.32;0.30;;;19.50;99.90;;;;;;5073972;28;20093;-73
2022/06/09 10:08:41;;;;;;;0.20;0.20;;;19.50;99.90;;;;;;5095779;28;20081;-72
2022/06/09 10:14:28;;;;;;;1.33;0.50;;;20.00;99.90;;;;;;5077296;28;20082;-72
2022/06/09 10:16:55;;;;;;;0.32;0.32;;;20.10;99.90;;;;;;5077141;28;20048;-73
2022/06/09 10:19:23;;;;;;;1.13;0.50;;;20.00;99.90;;;;;;5077272;28;20052;-73
2022/06/09 10:21:55;;;;;;;0.73;0.38;;;20.00;99.90;;;;;;5060367;28;20106;-72
2022/06/09 10:24:28;;;;;;;1.40;0.63;;;20.00;99.90;;;;;;5095366;28;20047;-74
2022/06/09 10:26:56;;;;;;;0.70;0.40;;;20.10;99.90;;;;;;5077277;28;20079;-72
2022/06/09 10:29:36;;;;;;;0.85;0.50;;;20.20;99.90;;;;;;5095220;28;20048;-72
2022/06/09 10:32:15;;;;;;;0.85;0.45;;;20.10;99.90;;;;;;5077531;28;20044;-71
2022/06/09 10:35:04;;;;;;;3.22;0.80;;;20.00;99.90;;;;;;5077591;28;20044;-72
2022/06/09 10:37:46;;;;;;;1.83;0.55;;;20.10;99.90;;;;;;5060900;28;20043;-71
2022/06/09 10:40:28;;;;;;;0.40;0.40;;;20.20;99.90;;;;;;5077491;28;20036;-72
2022/06/09 10:43:02;;;;;;;0.65;0.40;;;20.20;99.90;;;;;;5076778;28;20044;-72
2022/06/09 10:45:56;;;;;;;1.13;0.40;;;20.20;99.90;;;;;;5095017;28;20389;-75
2022/06/09 10:55:14;;;;;;;0.38;0.30;;;19.80;99.90;;;;;;5076422;28;20427;-72
2022/06/09 10:58:04;;;;;;;0.38;0.35;;;19.90;99.90;;;;;;5076732;28;20487;-72
2022/06/09 11:00:40;;;;;;;0.50;0.50;;;20.00;99.90;;;;;;5076559;28;20039;-73
2022/06/09 11:03:15;;;;;;;3.35;0.45;;;20.00;99.90;;;;;;5076956;28;20105;-72
2022/06/09 11:06:00;;;;;;;1.58;0.50;;;20.20;99.90;;;;;;5076626;28;20048;-72
2022/06/09 11:08:29;;;;;;;1.00;0.40;;;20.20;99.90;;;;;;5076936;28;20085;-72
2022/06/09 11:11:08;;;;;;;1.85;0.60;;;20.40;99.90;;;;;;5059814;28;20036;-73
2022/06/09 11:13:57;;;;;;;3.70;0.47;;;20.50;99.90;;;;;;5076571;28;20465;-72
2022/06/09 11:16:50;;;;;;;0.60;0.40;;;20.50;99.90;;;;;;5076107;28;20040;-73
2022/06/09 11:19:41;;;;;;;0.30;0.30;;;20.30;99.90;;;;;;5076498;28;20078;-73
2022/06/09 11:22:16;;;;;;;0.98;0.50;;;20.20;99.90;;;;;;5076858;28;20398;-73
2022/06/09 11:25:04;;;;;;;0.20;0.20;;;20.30;99.90;;;;;;5076452;28;20081;-73
2022/06/09 11:28:01;;;;;;;0.20;0.20;;;20.40;99.90;;;;;;5060127;28;20051;-73
2022/06/09 11:30:32;;;;;;;1.08;0.47;;;20.40;99.90;;;;;;5076458;28;20042;-74
2022/06/09 11:33:18;;;;;;;0.70;0.40;;;20.40;99.90;;;;;;5076364;28;20047;-73
2022/06/09 11:35:59;;;;;;;0.20;0.20;;;20.50;99.90;;;;;;5076223;28;20086;-74
2022/06/09 11:38:51;;;;;;;0.90;0.40;;;20.50;99.90;;;;;;5094248;28;20124;-73
2022/06/09 11:41:49;;;;;;;1.92;1.05;;;20.40;99.90;;;;;;5075649;28;20406;-72
2022/06/09 11:44:37;;;;;;;1.65;0.47;;;20.40;99.90;;;;;;5075810;28;20036;-73
2022/06/09 11:47:16;;;;;;;0.60;0.38;;;20.40;99.90;;;;;;5075533;28;20475;-73
2022/06/09 11:49:44;;;;;;;1.45;0.43;;;20.50;99.90;;;;;;5075830;28;20428;-73
2022/06/09 11:52:21;;;;;;;0.20;0.20;;;20.60;99.90;;;;;;5075878;28;20137;-73
2022/06/09 11:54:50;;;;;;;1.23;0.40;;;20.40;99.90;;;;;;5075296;28;20044;-73
2022/06/09 11:57:16;;;;;;;1.38;0.57;;;20.40;99.90;;;;;;5075489;28;20083;-73
2022/06/09 11:59:57;;;;;;;0.75;0.30;;;20.30;99.90;;;;;;5075371;28;20106;-73
2022/06/09 12:02:54;;;;;;;0.88;0.50;;;20.40;99.90;;;;;;5093745;28;20051;-74
2022/06/09 12:05:49;;;;;;;0.55;0.35;;;20.30;99.90;;;;;;5075016;28;20087;-73
2022/06/09 12:08:34;;;;;;;1.45;0.57;;;20.20;99.90;;;;;;5064670;28;20056;-74
2022/06/09 12:11:18;;;;;;;0.82;0.40;;;20.20;99.90;;;;;;5075266;28;20094;-73
2022/06/09 12:14:19;;;;;;;0.60;0.32;;;20.10;99.90;;;;;;5093144;28;20070;-73
2022/06/09 12:16:54;;;;;;;0.77;0.50;;;19.90;99.90;;;;;;5074966;28;20576;-73
2022/06/09 12:19:54;;;;;;;2.72;0.50;;;19.80;99.90;;;;;;5093464;28;20434;-74
2022/06/09 12:22:47;;;;;;;0.52;0.40;;;19.70;99.90;;;;;;5069489;28;20415;-74
2022/06/09 12:25:17;;;;;;;1.13;0.43;;;19.80;99.90;;;;;;5075084;28;20092;-73
2022/06/09 12:27:48;;;;;;;0.65;0.40;;;19.80;99.90;;;;;;5074072;28;20047;-74
2022/06/09 12:30:24;;;;;;;1.60;0.30;;;19.90;99.90;;;;;;5092931;28;20097;-73
2022/06/09 12:32:52;;;;;;;0.98;0.25;;;20.10;99.90;;;;;;5074766;28;20047;-72
2022/06/09 12:35:29;;;;;;;0.25;0.25;;;20.20;99.90;;;;;;5074869;28;20052;-73
2022/06/09 12:38:29;;;;;;;0.50;0.30;;;20.10;99.90;;;;;;5058323;28;20101;-74
2022/06/09 12:40:59;;;;;;;2.10;0.38;;;20.30;99.90;;;;;;5069372;28;20096;-73
2022/06/09 12:43:41;;;;;;;0.85;0.40;;;20.40;99.90;;;;;;5074720;28;20044;-73
2022/06/09 12:46:20;;;;;;;0.85;0.50;;;20.40;99.90;;;;;;5057710;28;20129;-73
2022/06/09 12:48:48;;;;;;;1.30;0.40;;;20.40;99.90;;;;;;5075137;28;20048;-73
2022/06/09 12:51:24;;;;;;;1.63;0.50;;;20.30;99.90;;;;;;5074898;28;20048;-74
2022/06/09 12:54:18;;;;;;;2.05;0.60;;;20.50;99.90;;;;;;5074833;28;20105;-73
2022/06/09 12:56:57;;;;;;;0.22;0.20;;;20.60;99.90;;;;;;5074386;28;20044;-73
2022/06/09 12:59:28;;;;;;;1.42;0.45;;;20.70;99.90;;;;;;5057688;28;20040;-74
2022/06/09 13:01:55;;;;;;;;;;;20.70;99.90;;;;;;5074941;28;20150;-73
2022/06/09 13:04:22;;;;;;;1.20;0.50;;;20.70;99.90;;;;;;5092877;28;19928;-74
2022/06/09 13:06:48;;;;;;;1.65;0.32;;;20.70;99.90;;;;;;5074686;28;20090;-73
2022/06/09 13:09:31;;;;;;;2.08;0.43;;;20.50;99.90;;;;;;5074737;28;20089;-75
2022/06/09 13:15:13;;;;;;;0.68;0.40;;;20.40;99.90;;;;;;5074253;28;20126;-74
2022/06/09 13:17:40;;;;;;;0.47;0.40;;;20.30;99.90;;;;;;5074550;28;20105;-73
2022/06/09 13:20:14;;;;;;;0.55;0.40;;;20.10;99.90;;;;;;5074469;28;20048;-73
2022/06/09 13:22:40;;;;;;;0.65;0.40;;;19.90;99.90;;;;;;5074207;28;20471;-73
2022/06/09 13:25:13;;;;;;;0.85;0.30;;;19.80;99.90;;;;;;5074384;28;20071;-74
2022/06/09 13:27:40;;;;;;;0.50;0.38;;;19.80;99.90;;;;;;5092269;28;20043;-73
2022/06/09 13:30:31;;;;;;;1.45;0.65;;;19.80;99.90;;;;;;5074177;28;20044;-73
2022/06/09 13:32:57;;;;;;;2.00;0.43;;;19.70;99.90;;;;;;5074545;28;20395;-73